Time;durP1;ratioP1;P1;durP2;ratioP2;P2;SDS_P1;SDS_P2;PMS_P1;PMS_P2;Temp;Humidity;BMP_temperature;BMP_pressure;BME280_temperature;BME280_humidity;BME280_pressure;Samples;Min_cycle;Max_cycle;Signal;HPM_P1;HPM_P2
2023/06/10 05:22:19;;;;;;;;;;;;;;;7.12;100.00;99321.97;6176293;23;19966;-81
2023/06/10 05:24:44;;;;;;;;;;;;;;;7.13;100.00;99328.94;6158605;23;19916;-82
2023/06/10 05:27:10;;;;;;;;;;;;;;;7.16;100.00;99322.72;6158242;23;19916;-82
2023/06/10 05:29:35;;;;;;;;;;;;;;;7.22;100.00;99328.63;6158519;23;20022;-82
2023/06/10 05:32:02;;;;;;;;;;;;;;;7.21;100.00;99329.56;6184799;23;19912;-82
2023/06/10 05:34:28;;;;;;;;;;;;;;;7.22;100.00;99330.41;6184993;23;19999;-82
2023/06/10 05:36:53;;;;;;;;;;;;;;;7.19;100.00;99334.00;6183228;23;19947;-81
2023/06/10 05:39:19;;;;;;;;;;;;;;;7.22;100.00;99339.16;6149240;23;19983;-82
2023/06/10 05:41:44;;;;;;;;;;;;;;;7.24;100.00;99341.75;6149314;23;19913;-82
2023/06/10 05:44:09;;;;;;;;;;;;;;;7.21;100.00;99336.56;6184730;23;19931;-82
2023/06/10 05:46:35;;;;;;;;;;;;;;;7.27;100.00;99333.72;6149360;23;20312;-83
2023/06/10 05:49:00;;;;;;;;;;;;;;;7.25;100.00;99340.84;6158269;23;20309;-82
2023/06/10 05:51:25;;;;;;;;;;;;;;;7.26;100.00;99339.94;6183079;23;20309;-82
2023/06/10 05:53:50;;;;;;;;;;;;;;;7.18;100.00;99342.84;6158319;23;19912;-82
2023/06/10 05:56:16;;;;;;;;;;;;;;;7.14;100.00;99335.94;6184544;23;20276;-82
2023/06/10 05:58:41;;;;;;;;;;;;;;;7.11;100.00;99343.09;6149382;23;20179;-83
2023/06/10 06:01:06;;;;;;;;;;;;;;;7.12;100.00;99344.84;6184676;23;19987;-83
2023/06/10 06:03:31;;;;;;;;;;;;;;;7.12;100.00;99344.84;6184602;23;19919;-82
2023/06/10 06:05:57;;;;;;;;;;;;;;;7.07;100.00;99340.56;6147607;23;19945;-84
2023/06/10 06:08:22;;;;;;;;;;;;;;;7.07;100.00;99348.47;6158457;23;19920;-83
2023/06/10 06:10:50;;;;;;;;;;;;;;;7.06;100.00;99348.53;6184565;23;20236;-83
2023/06/10 06:13:15;;;;;;;;;;;;;;;7.05;100.00;99345.06;6157822;23;19916;-82
2023/06/10 06:15:40;;;;;;;;;;;;;;;7.02;100.00;99347.78;6184563;23;19978;-83
2023/06/10 06:18:06;;;;;;;;;;;;;;;7.02;100.00;99346.91;6149207;23;19914;-82
2023/06/10 06:20:31;;;;;;;;;;;;;;;7.00;100.00;99349.59;6182907;23;20322;-81
2023/06/10 06:22:56;;;;;;;;;;;;;;;7.01;100.00;99353.13;6184348;23;19975;-82
2023/06/10 06:25:21;;;;;;;;;;;;;;;7.01;100.00;99346.06;6184401;23;19927;-82
2023/06/10 06:27:48;;;;;;;;;;;;;;;7.03;100.00;99344.22;6158353;23;20325;-82
2023/06/10 06:30:13;;;;;;;;;;;;;;;7.01;100.00;99351.31;6186476;23;19919;-82
2023/06/10 06:32:38;;;;;;;;;;;;;;;7.04;100.00;99356.50;6160316;23;19912;-82
2023/06/10 06:35:05;;;;;;;;;;;;;;;7.03;100.00;99352.13;6158209;23;19971;-83
2023/06/10 06:37:31;;;;;;;;;;;;;;;7.04;100.00;99348.59;6159920;23;19944;-83
2023/06/10 06:39:57;;;;;;;;;;;;;;;7.01;100.00;99348.69;6186242;23;19920;-82
2023/06/10 06:42:23;;;;;;;;;;;;;;;7.04;100.00;99351.22;6186117;23;19927;-83
2023/06/10 06:44:48;;;;;;;;;;;;;;;7.07;100.00;99360.81;6150738;23;20240;-84
2023/06/10 06:47:13;;;;;;;;;;;;;;;7.10;100.00;99365.97;6159826;23;19920;-82
2023/06/10 06:49:39;;;;;;;;;;;;;;;7.05;100.00;99357.34;6159750;23;20400;-82
2023/06/10 06:52:04;;;;;;;;;;;;;;;7.05;100.00;99363.50;6158598;23;19916;-82
2023/06/10 06:54:30;;;;;;;;;;;;;;;7.06;100.00;99359.94;6159693;23;20338;-82
2023/06/10 06:56:55;;;;;;;;;;;;;;;7.05;100.00;99368.75;6185908;23;19912;-82
2023/06/10 06:59:20;;;;;;;;;;;;;;;7.05;100.00;99358.22;6159713;23;19912;-82
2023/06/10 07:01:46;;;;;;;;;;;;;;;7.04;100.00;99359.13;6186054;23;20003;-82
2023/06/10 07:04:11;;;;;;;;;;;;;;;7.06;100.00;99354.66;6186117;23;20443;-82
2023/06/10 07:06:37;;;;;;;;;;;;;;;7.06;100.00;99359.94;6158370;23;19916;-82
2023/06/10 07:09:03;;;;;;;;;;;;;;;7.12;100.00;99358.00;6159571;23;19916;-82
2023/06/10 07:11:28;;;;;;;;;;;;;;;7.09;100.00;99359.81;6186082;23;19967;-83
2023/06/10 07:13:53;;;;;;;;;;;;;;;7.11;100.00;99362.41;6159719;23;19913;-82
2023/06/10 07:16:20;;;;;;;;;;;;;;;7.14;100.00;99357.03;6159575;23;19913;-82
2023/06/10 07:38:14;;;;;;;;;;;;;;;7.16;100.00;99365.72;6173010;23;19926;-83
2023/06/10 07:40:39;;;;;;;;;;;;;;;7.12;100.00;99363.28;6159017;23;19991;-82
2023/06/10 07:43:04;;;;;;;;;;;;;;;7.14;100.00;99362.28;6185747;23;19912;-82
2023/06/10 07:45:30;;;;;;;;;;;;;;;7.12;100.00;99364.13;6185494;23;19920;-82
2023/06/10 07:47:55;;;;;;;;;;;;;;;7.11;100.00;99356.28;6159390;23;19913;-81
2023/06/10 07:50:20;;;;;;;;;;;;;;;7.14;100.00;99361.44;6185713;23;20320;-83
2023/06/10 07:52:46;;;;;;;;;;;;;;;7.16;100.00;99354.34;6184018;23;19987;-82
2023/06/10 07:55:11;;;;;;;;;;;;;;;7.14;100.00;99364.06;6185502;23;19913;-82
2023/06/10 07:57:38;;;;;;;;;;;;;;;7.12;100.00;99364.13;6159189;23;19920;-82
2023/06/10 08:00:04;;;;;;;;;;;;;;;7.12;100.00;99358.00;6185752;23;19918;-83
2023/06/10 08:02:29;;;;;;;;;;;;;;;7.15;100.00;99364.03;6159195;23;19944;-82
2023/06/10 08:04:55;;;;;;;;;;;;;;;7.18;100.00;99356.00;6185811;23;20285;-83
2023/06/10 08:07:20;;;;;;;;;;;;;;;7.15;100.00;99360.50;6157584;23;20262;-82
2023/06/10 08:09:45;;;;;;;;;;;;;;;7.14;100.00;99369.34;6185639;23;19979;-82
2023/06/10 08:12:10;;;;;;;;;;;;;;;7.19;100.00;99367.41;6185395;23;19912;-82
2023/06/10 08:14:36;;;;;;;;;;;;;;;7.18;100.00;99368.31;6185150;23;19999;-82
2023/06/10 08:17:03;;;;;;;;;;;;;;;7.18;100.00;99368.31;6185673;23;19913;-82
2023/06/10 08:19:28;;;;;;;;;;;;;;;7.19;100.00;99367.41;6159111;23;19916;-82
2023/06/10 08:21:53;;;;;;;;;;;;;;;7.18;100.00;99360.41;6157264;23;19938;-81
2023/06/10 08:24:19;;;;;;;;;;;;;;;7.20;100.00;99358.59;6185367;23;20299;-81
2023/06/10 08:26:45;;;;;;;;;;;;;;;7.18;100.00;99366.56;6185272;23;19913;-82
2023/06/10 08:29:11;;;;;;;;;;;;;;;7.20;100.00;99361.22;6159026;23;19912;-85
2023/06/10 08:31:36;;;;;;;;;;;;;;;7.19;100.00;99362.13;6158650;23;19912;-82
2023/06/10 08:34:02;;;;;;;;;;;;;;;7.19;100.00;99354.22;6175642;23;19919;-82
2023/06/10 08:36:27;;;;;;;;;;;;;;;7.22;100.00;99348.84;6157605;23;20210;-82
2023/06/10 08:38:52;;;;;;;;;;;;;;;7.14;100.00;99353.53;6184988;23;20317;-81
2023/06/10 08:41:19;;;;;;;;;;;;;;;7.18;100.00;99342.84;6185123;23;20391;-82
2023/06/10 08:43:54;;;;;;;;;;;;;;;7.18;100.00;99341.97;6150646;23;20273;-81
2023/06/10 08:46:19;;;;;;;;;;;;;;;7.15;100.00;99356.13;6158985;23;19947;-82
2023/06/10 08:48:48;;;;;;;;;;;;;;;7.21;100.00;99345.38;6158675;23;20275;-82
2023/06/10 08:51:16;;;;;;;;;;;;;;;7.21;100.00;99357.66;6183312;23;19924;-82
2023/06/10 08:53:47;;;;;;;;;;;;;;;7.22;100.00;99354.13;6184965;23;19916;-81
2023/06/10 08:56:13;;;;;;;;;;;;;;;7.17;100.00;99353.44;6159101;23;19912;-81
2023/06/10 08:58:41;;;;;;;;;;;;;;;7.20;100.00;99343.63;6158385;23;20016;-81
2023/06/10 09:01:07;;;;;;;;;;;;;;;7.20;100.00;99348.91;6184919;23;19913;-82
2023/06/10 09:03:33;;;;;;;;;;;;;;;7.19;100.00;99348.97;6184954;23;19922;-81
2023/06/10 09:05:59;;;;;;;;;;;;;;;7.22;100.00;99346.22;6150919;23;20330;-83
2023/06/10 09:08:24;;;;;;;;;;;;;;;7.23;100.00;99350.56;6157118;23;20023;-82
2023/06/10 09:10:49;;;;;;;;;;;;;;;7.26;100.00;99343.41;6158577;23;19939;-81
2023/06/10 09:13:18;;;;;;;;;;;;;;;7.22;100.00;99349.69;6184607;23;20236;-82
2023/06/10 09:15:44;;;;;;;;;;;;;;;7.23;100.00;99340.03;6158499;23;19916;-81
2023/06/10 09:18:09;;;;;;;;;;;;;;;7.25;100.00;99348.75;6184872;23;19919;-82
2023/06/10 09:20:35;;;;;;;;;;;;;;;7.31;100.00;99345.88;6158911;23;19916;-82
2023/06/10 09:23:01;;;;;;;;;;;;;;;7.27;100.00;99346.91;6156827;23;19940;-81
2023/06/10 09:25:34;;;;;;;;;;;;;;;7.32;100.00;99347.59;6184875;23;19983;-81
2023/06/10 09:28:03;;;;;;;;;;;;;;;7.27;100.00;99349.53;6184679;23;19916;-86
2023/06/10 09:30:32;;;;;;;;;;;;;;;7.28;100.00;99340.72;6158626;23;19924;-82
2023/06/10 09:32:59;;;;;;;;;;;;;;;7.28;100.00;99348.63;6158324;23;19948;-82
2023/06/10 09:35:25;;;;;;;;;;;;;;;7.36;100.00;99349.22;6158441;23;20286;-81
2023/06/10 09:37:55;;;;;;;;;;;;;;;7.31;100.00;99345.00;6156753;23;19935;-82
2023/06/10 09:40:20;;;;;;;;;;;;;;;7.32;100.00;99350.22;6184627;23;19916;-82
2023/06/10 09:42:48;;;;;;;;;;;;;;;7.28;100.00;99346.00;6184671;23;19919;-82
2023/06/10 09:45:14;;;;;;;;;;;;;;;7.30;100.00;99349.44;6185024;23;19912;-83
2023/06/10 09:47:39;;;;;;;;;;;;;;;7.26;100.00;99339.94;6184567;23;19931;-82
2023/06/10 09:50:05;;;;;;;;;;;;;;;7.24;100.00;99339.09;6184591;23;19959;-81
2023/06/10 09:52:30;;;;;;;;;;;;;;;7.27;100.00;99336.34;6183093;23;19919;-82
2023/06/10 09:55:00;;;;;;;;;;;;;;;7.32;100.00;99339.69;6158449;23;19912;-81
2023/06/10 09:57:25;;;;;;;;;;;;;;;7.33;100.00;99340.56;6158091;23;19918;-82
2023/06/10 09:59:54;;;;;;;;;;;;;;;7.29;100.00;99339.78;6158546;23;19940;-81
2023/06/10 10:02:20;;;;;;;;;;;;;;;7.28;100.00;99340.72;6158234;23;19952;-81
2023/06/10 10:04:45;;;;;;;;;;;;;;;7.34;100.00;99337.88;6186559;23;19920;-82
2023/06/10 10:07:11;;;;;;;;;;;;;;;7.34;100.00;99337.00;6158541;23;19915;-81
2023/06/10 10:09:37;;;;;;;;;;;;;;;7.34;100.00;99337.88;6186817;23;19912;-81
2023/06/10 10:12:07;;;;;;;;;;;;;;;7.26;100.00;99339.94;6186420;23;19908;-82
2023/06/10 10:14:32;;;;;;;;;;;;;;;7.32;100.00;99325.66;6160382;23;19920;-81
2023/06/10 10:16:58;;;;;;;;;;;;;;;7.26;100.00;99332.03;6186574;23;19920;-82
2023/06/10 10:19:27;;;;;;;;;;;;;;;7.27;100.00;99323.19;6186385;23;19966;-82
2023/06/10 10:21:54;;;;;;;;;;;;;;;7.26;100.00;99332.03;6184653;23;19935;-81
2023/06/10 10:24:26;;;;;;;;;;;;;;;7.33;100.00;99330.03;6186497;23;20300;-81
2023/06/10 10:26:54;;;;;;;;;;;;;;;7.41;100.00;99328.81;6159920;23;20244;-82
2023/06/10 10:29:23;;;;;;;;;;;;;;;7.42;100.00;99325.25;6186713;23;20327;-82
2023/06/10 10:31:53;;;;;;;;;;;;;;;7.38;100.00;99322.78;6160004;23;19912;-84
2023/06/10 10:34:25;;;;;;;;;;;;;;;7.31;100.00;99331.81;6160128;23;19923;-82
2023/06/10 10:36:53;;;;;;;;;;;;;;;7.39;100.00;99333.28;6184505;23;19955;-82
2023/06/10 10:39:19;;;;;;;;;;;;;;;7.38;100.00;99328.91;6186470;23;19948;-82
2023/06/10 10:41:45;;;;;;;;;;;;;;;7.31;100.00;99318.66;6186203;23;19912;-81
2023/06/10 10:44:13;;;;;;;;;;;;;;;7.33;100.00;99317.69;6186153;23;19921;-81
2023/06/10 10:46:43;;;;;;;;;;;;;;;7.33;100.00;99319.47;6186235;23;19920;-81
2023/06/10 10:49:09;;;;;;;;;;;;;;;7.38;100.00;99313.09;6186316;23;19922;-81
2023/06/10 10:51:35;;;;;;;;;;;;;;;7.34;100.00;99311.50;6184422;23;19920;-81
2023/06/10 10:54:09;;;;;;;;;;;;;;;7.39;100.00;99304.28;6186010;23;20154;-84
2023/06/10 10:56:34;;;;;;;;;;;;;;;7.32;100.00;99294.03;6186158;23;19920;-81
2023/06/10 10:59:06;;;;;;;;;;;;;;;7.32;100.00;99302.78;6184966;23;19950;-83
2023/06/10 11:01:46;;;;;;;;;;;;;;;7.36;100.00;99296.50;6185768;23;19924;-82
2023/06/10 11:04:11;;;;;;;;;;;;;;;7.40;100.00;99302.50;6186111;23;19908;-83
2023/06/10 11:06:36;;;;;;;;;;;;;;;7.41;100.00;99310.34;6184469;23;19919;-83
2023/06/10 11:09:21;;;;;;;;;;;;;;;7.38;100.00;99299.06;6186012;23;19982;-82
2023/06/10 11:11:50;;;;;;;;;;;;;;;7.35;100.00;99296.53;6185799;23;19912;-87
2023/06/10 11:14:36;;;;;;;;;;;;;;;7.32;100.00;99296.66;6185606;23;19951;-83
2023/06/10 11:17:18;;;;;;;;;;;;;;;7.34;100.00;99298.34;6185550;23;19913;-82
2023/06/10 11:19:46;;;;;;;;;;;;;;;7.33;100.00;99293.97;6185870;23;19947;-82
2023/06/10 11:22:15;;;;;;;;;;;;;;;7.33;100.00;99298.38;6157995;23;20292;-82
2023/06/10 11:24:41;;;;;;;;;;;;;;;7.34;100.00;99294.81;6185684;23;19917;-83
2023/06/10 11:27:24;;;;;;;;;;;;;;;7.36;100.00;99299.13;6159441;23;19922;-83
2023/06/10 11:29:57;;;;;;;;;;;;;;;7.34;100.00;99295.69;6159848;23;19913;-83
2023/06/10 11:32:24;;;;;;;;;;;;;;;7.32;100.00;99300.16;6159469;23;19922;-82
2023/06/10 11:34:53;;;;;;;;;;;;;;;7.31;100.00;99295.81;6150413;23;19916;-83
2023/06/10 11:37:18;;;;;;;;;;;;;;;7.32;100.00;99296.66;6148784;23;19920;-82
2023/06/10 11:39:44;;;;;;;;;;;;;;;7.33;100.00;99286.06;6159538;23;19916;-82
2023/06/10 11:42:10;;;;;;;;;;;;;;;7.34;100.00;99295.69;6185686;23;19920;-81
2023/06/10 11:44:37;;;;;;;;;;;;;;;7.33;100.00;99298.38;6185786;23;19920;-82
2023/06/10 11:47:02;;;;;;;;;;;;;;;7.34;100.00;99300.09;6185521;23;19919;-82
2023/06/10 11:49:28;;;;;;;;;;;;;;;7.32;100.00;99297.50;6159642;23;19920;-82
2023/06/10 11:51:53;;;;;;;;;;;;;;;7.42;100.00;99296.25;6184747;23;19912;-84
2023/06/10 11:54:18;;;;;;;;;;;;;;;7.39;100.00;99296.38;6159135;23;19970;-82
2023/06/10 11:56:44;;;;;;;;;;;;;;;7.40;100.00;99292.84;6159293;23;19987;-81
2023/06/10 11:59:09;;;;;;;;;;;;;;;7.37;100.00;99278.88;6185321;23;19908;-82
2023/06/10 12:01:40;;;;;;;;;;;;;;;7.35;100.00;99283.38;6159574;23;19919;-82
2023/06/10 12:04:06;;;;;;;;;;;;;;;7.39;100.00;99284.97;6185640;23;19912;-82
2023/06/10 12:06:57;;;;;;;;;;;;;;;7.34;100.00;99290.44;6184195;23;19959;-82
2023/06/10 12:09:24;;;;;;;;;;;;;;;7.36;100.00;99279.81;6177503;23;19922;-81
2023/06/10 12:11:54;;;;;;;;;;;;;;;7.34;100.00;99287.78;6184480;23;19917;-84
2023/06/10 12:14:38;;;;;;;;;;;;;;;7.34;100.00;99281.63;6184826;23;19920;-82
2023/06/10 12:17:04;;;;;;;;;;;;;;;7.36;100.00;99269.28;6184606;23;19943;-81
2023/06/10 12:19:29;;;;;;;;;;;;;;;7.35;100.00;99273.69;6184641;23;19920;-82
2023/06/10 12:21:54;;;;;;;;;;;;;;;7.35;100.00;99271.03;6182049;23;20290;-81
2023/06/10 12:24:20;;;;;;;;;;;;;;;7.38;100.00;99273.56;6158007;23;19916;-85
2023/06/10 12:26:45;;;;;;;;;;;;;;;7.35;100.00;99263.13;6183429;23;19912;-82
2023/06/10 12:29:22;;;;;;;;;;;;;;;7.36;100.00;99261.38;6183997;23;19916;-83
2023/06/10 12:31:53;;;;;;;;;;;;;;;7.37;100.00;99258.69;6185361;23;19916;-82
2023/06/10 12:34:18;;;;;;;;;;;;;;;7.35;100.00;99259.66;6158618;23;20000;-82
2023/06/10 12:36:49;;;;;;;;;;;;;;;7.41;100.00;99262.91;6183146;23;19967;-82
2023/06/10 12:39:15;;;;;;;;;;;;;;;7.41;100.00;99255.00;6158420;23;20325;-82
2023/06/10 12:41:40;;;;;;;;;;;;;;;7.42;100.00;99262.00;6184746;23;19912;-82
2023/06/10 12:44:05;;;;;;;;;;;;;;;7.36;100.00;99256.97;6158181;23;19912;-82
2023/06/10 12:46:37;;;;;;;;;;;;;;;7.38;100.00;99270.06;6157677;23;19919;-82
2023/06/10 12:49:02;;;;;;;;;;;;;;;7.33;100.00;99259.72;6158523;23;19998;-82
2023/06/10 12:51:28;;;;;;;;;;;;;;;7.38;100.00;99265.66;6183249;23;20030;-82
2023/06/10 12:53:53;;;;;;;;;;;;;;;7.39;100.00;99262.13;6184772;23;19913;-82
2023/06/10 12:56:18;;;;;;;;;;;;;;;7.35;100.00;99260.50;6158040;23;19935;-82
2023/06/10 12:58:43;;;;;;;;;;;;;;;7.36;100.00;99256.97;6158517;23;19918;-82
2023/06/10 13:01:09;;;;;;;;;;;;;;;7.35;100.00;99255.22;6158506;23;19912;-82
2023/06/10 13:03:34;;;;;;;;;;;;;;;7.38;100.00;99264.81;6184738;23;20382;-84
2023/06/10 13:05:59;;;;;;;;;;;;;;;7.44;100.00;99262.78;6184793;23;19916;-82
2023/06/10 13:08:25;;;;;;;;;;;;;;;7.40;100.00;99252.41;6157707;23;20477;-82
2023/06/10 13:10:50;;;;;;;;;;;;;;;7.38;100.00;99244.56;6184228;23;20313;-82
2023/06/10 13:13:15;;;;;;;;;;;;;;;7.36;100.00;99254.31;6183979;23;19916;-82
2023/06/10 13:15:41;;;;;;;;;;;;;;;7.38;100.00;99249.84;6158501;23;19920;-82
2023/06/10 13:18:06;;;;;;;;;;;;;;;7.41;100.00;99244.44;6184325;23;19912;-81
2023/06/10 13:20:31;;;;;;;;;;;;;;;7.38;100.00;99249.00;6184831;23;19916;-82
2023/06/10 13:22:57;;;;;;;;;;;;;;;7.39;100.00;99242.81;6183409;23;19920;-84
2023/06/10 13:25:22;;;;;;;;;;;;;;;7.39;100.00;99238.38;6184306;23;20524;-82
2023/06/10 13:27:48;;;;;;;;;;;;;;;7.36;100.00;99235.88;6158260;23;19916;-82
2023/06/10 13:30:13;;;;;;;;;;;;;;;7.42;100.00;99238.28;6184581;23;19923;-84
2023/06/10 13:32:39;;;;;;;;;;;;;;;7.43;100.00;99239.13;6184142;23;19918;-82
2023/06/10 13:35:04;;;;;;;;;;;;;;;7.43;100.00;99231.22;6158044;23;19913;-82
2023/06/10 13:37:29;;;;;;;;;;;;;;;7.38;100.00;99225.28;6182960;23;20331;-81
2023/06/10 13:39:55;;;;;;;;;;;;;;;7.38;100.00;99228.75;6158173;23;19997;-82
2023/06/10 13:42:21;;;;;;;;;;;;;;;7.48;100.00;99223.13;6148453;23;19913;-82
2023/06/10 13:44:49;;;;;;;;;;;;;;;7.51;100.00;99228.28;6158539;23;19916;-82
2023/06/10 13:47:14;;;;;;;;;;;;;;;7.46;100.00;99233.72;6184459;23;19917;-82
2023/06/10 13:49:40;;;;;;;;;;;;;;;7.38;100.00;99223.47;6151362;23;20347;-82
2023/06/10 13:52:06;;;;;;;;;;;;;;;7.43;100.00;99226.78;6156502;23;19937;-85
2023/06/10 13:54:31;;;;;;;;;;;;;;;7.44;100.00;99228.53;6158490;23;19959;-83
2023/06/10 13:56:56;;;;;;;;;;;;;;;7.53;100.00;99221.16;6158031;23;19912;-85
2023/06/10 13:59:22;;;;;;;;;;;;;;;7.43;100.00;99210.97;6184344;23;19915;-81
2023/06/10 14:01:47;;;;;;;;;;;;;;;7.43;100.00;99221.53;6184636;23;19922;-82
2023/06/10 14:04:13;;;;;;;;;;;;;;;7.48;100.00;99217.84;6184636;23;19916;-82
2023/06/10 14:06:38;;;;;;;;;;;;;;;7.50;100.00;99216.88;6156563;23;20332;-82
2023/06/10 14:09:03;;;;;;;;;;;;;;;7.43;100.00;99220.66;6157986;23;19912;-81
2023/06/10 14:11:29;;;;;;;;;;;;;;;7.48;100.00;99215.22;6157947;23;19943;-82
2023/06/10 14:13:56;;;;;;;;;;;;;;;7.51;100.00;99217.75;6158087;23;19990;-82
2023/06/10 14:16:21;;;;;;;;;;;;;;;7.53;100.00;99218.53;6184269;23;19920;-82
2023/06/10 14:18:46;;;;;;;;;;;;;;;7.52;100.00;99212.41;6184789;23;19942;-82
2023/06/10 14:21:12;;;;;;;;;;;;;;;7.44;100.00;99211.84;6156426;23;19943;-82
2023/06/10 14:23:37;;;;;;;;;;;;;;;7.41;100.00;99207.56;6158458;23;19912;-82
2023/06/10 14:26:03;;;;;;;;;;;;;;;7.49;100.00;99209.88;6158106;23;20214;-82
2023/06/10 14:28:28;;;;;;;;;;;;;;;7.42;100.00;99217.19;6157858;23;20398;-82
2023/06/10 14:30:54;;;;;;;;;;;;;;;7.40;100.00;99215.50;6158055;23;19908;-82
2023/06/10 14:33:19;;;;;;;;;;;;;;;7.42;100.00;99211.06;6184075;23;19934;-81
2023/06/10 14:35:44;;;;;;;;;;;;;;;7.41;100.00;99202.28;6157844;23;19920;-82
2023/06/10 14:38:09;;;;;;;;;;;;;;;7.38;100.00;99199.75;6156334;23;19920;-82
2023/06/10 14:40:35;;;;;;;;;;;;;;;7.38;100.00;99207.66;6157960;23;19912;-82
2023/06/10 14:43:01;;;;;;;;;;;;;;;7.34;100.00;99198.19;6184553;23;19912;-81
2023/06/10 14:45:26;;;;;;;;;;;;;;;7.36;100.00;99192.84;6157612;23;20317;-82
2023/06/10 14:47:51;;;;;;;;;;;;;;;7.36;100.00;99187.59;6158281;23;19912;-81
2023/06/10 14:50:17;;;;;;;;;;;;;;;7.42;100.00;99188.19;6159406;23;19908;-83
2023/06/10 14:52:42;;;;;;;;;;;;;;;7.42;100.00;99193.47;6184320;23;19999;-82
2023/06/10 14:55:07;;;;;;;;;;;;;;;7.46;100.00;99197.69;6186218;23;19920;-82
2023/06/10 14:57:33;;;;;;;;;;;;;;;7.43;100.00;99195.16;6186180;23;19947;-82
2023/06/10 14:59:58;;;;;;;;;;;;;;;7.43;100.00;99187.25;6186143;23;20391;-81
2023/06/10 15:02:23;;;;;;;;;;;;;;;7.40;100.00;99184.78;6159327;23;20313;-85
2023/06/10 15:04:48;;;;;;;;;;;;;;;7.42;100.00;99185.56;6185985;23;19916;-82
2023/06/10 15:07:15;;;;;;;;;;;;;;;7.40;100.00;99186.53;6184449;23;19967;-82
2023/06/10 15:09:40;;;;;;;;;;;;;;;7.51;100.00;99180.84;6159676;23;19924;-82
2023/06/10 15:12:06;;;;;;;;;;;;;;;7.42;100.00;99172.38;6185768;23;19912;-82
2023/06/10 15:14:31;;;;;;;;;;;;;;;7.45;100.00;99174.88;6185832;23;19916;-82
2023/06/10 15:16:59;;;;;;;;;;;;;;;7.45;100.00;99166.09;6186288;23;19912;-82
2023/06/10 15:19:24;;;;;;;;;;;;;;;7.45;100.00;99166.97;6159344;23;20007;-81
2023/06/10 15:21:49;;;;;;;;;;;;;;;7.45;100.00;99168.75;6157750;23;19912;-82
2023/06/10 15:24:14;;;;;;;;;;;;;;;7.48;100.00;99176.53;6185742;23;19920;-82
2023/06/10 15:26:40;;;;;;;;;;;;;;;7.48;100.00;99170.41;6159435;23;19993;-81
2023/06/10 15:29:06;;;;;;;;;;;;;;;7.57;100.00;99168.25;6159219;23;19916;-83
2023/06/10 15:31:31;;;;;;;;;;;;;;;7.52;100.00;99169.38;6159286;23;19923;-82
2023/06/10 15:33:57;;;;;;;;;;;;;;;7.47;100.00;99164.28;6185522;23;19913;-83
2023/06/10 15:36:22;;;;;;;;;;;;;;;7.49;100.00;99166.88;6177177;23;20386;-82
2023/06/10 15:38:47;;;;;;;;;;;;;;;7.45;100.00;99160.84;6185471;23;19920;-84
2023/06/10 15:41:13;;;;;;;;;;;;;;;7.46;100.00;99160.78;6185283;23;19916;-82
2023/06/10 15:43:38;;;;;;;;;;;;;;;7.49;100.00;99161.59;6159516;23;19966;-85
2023/06/10 15:46:06;;;;;;;;;;;;;;;7.51;100.00;99150.03;6185541;23;20288;-82
2023/06/10 15:48:32;;;;;;;;;;;;;;;7.45;100.00;99161.72;6185376;23;19923;-82
2023/06/10 15:50:57;;;;;;;;;;;;;;;7.53;100.00;99164.03;6185807;23;19912;-82
2023/06/10 15:53:22;;;;;;;;;;;;;;;7.52;100.00;99156.19;6183890;23;19923;-82
2023/06/10 15:55:47;;;;;;;;;;;;;;;7.49;100.00;99161.59;6185695;23;19916;-81
2023/06/10 15:58:13;;;;;;;;;;;;;;;7.46;100.00;99160.78;6185527;23;19923;-83
2023/06/10 16:00:38;;;;;;;;;;;;;;;7.48;100.00;99159.88;6185043;23;20004;-82
2023/06/10 16:03:03;;;;;;;;;;;;;;;7.46;100.00;99152.88;6185509;23;19916;-82
2023/06/10 16:05:29;;;;;;;;;;;;;;;7.43;100.00;99160.91;6185348;23;19912;-83
2023/06/10 16:07:54;;;;;;;;;;;;;;;7.43;100.00;99160.03;6158002;23;19967;-82
2023/06/10 16:10:21;;;;;;;;;;;;;;;7.46;100.00;99159.94;6146490;23;19927;-82
2023/06/10 16:12:50;;;;;;;;;;;;;;;7.45;100.00;99160.84;6151274;23;19920;-82
2023/06/10 16:15:15;;;;;;;;;;;;;;;7.47;100.00;99153.75;6159288;23;19921;-82
2023/06/10 16:17:41;;;;;;;;;;;;;;;7.46;100.00;99147.59;6159004;23;19920;-82
2023/06/10 16:20:06;;;;;;;;;;;;;;;7.49;100.00;99140.50;6185362;23;19913;-82
2023/06/10 16:22:32;;;;;;;;;;;;;;;7.51;100.00;99151.84;6183587;23;19912;-83
2023/06/10 16:24:57;;;;;;;;;;;;;;;7.51;100.00;99149.19;6185167;23;19912;-82
2023/06/10 16:27:24;;;;;;;;;;;;;;;7.53;100.00;99147.34;6185296;23;19912;-82
2023/06/10 16:29:49;;;;;;;;;;;;;;;7.51;100.00;99143.94;6159248;23;20364;-82
2023/06/10 16:32:15;;;;;;;;;;;;;;;7.50;100.00;99158.91;6185280;23;19920;-82
2023/06/10 16:34:40;;;;;;;;;;;;;;;7.51;100.00;99151.84;6158879;23;19912;-82
2023/06/10 16:37:05;;;;;;;;;;;;;;;7.48;100.00;99150.16;6183703;23;19916;-82
2023/06/10 16:39:30;;;;;;;;;;;;;;;7.46;100.00;99155.50;6185325;23;19943;-81
2023/06/10 16:41:56;;;;;;;;;;;;;;;7.49;100.00;99149.25;6158824;23;20275;-82
2023/06/10 16:44:21;;;;;;;;;;;;;;;7.51;100.00;99146.56;6159229;23;19912;-82
2023/06/10 16:46:46;;;;;;;;;;;;;;;7.48;100.00;99149.31;6185179;23;19916;-82
2023/06/10 16:49:12;;;;;;;;;;;;;;;7.46;100.00;99149.38;6185155;23;19912;-82
2023/06/10 16:51:37;;;;;;;;;;;;;;;7.43;100.00;99147.72;6157068;23;19912;-82
2023/06/10 16:54:02;;;;;;;;;;;;;;;7.43;100.00;99144.22;6158657;23;19943;-82
2023/06/10 16:56:27;;;;;;;;;;;;;;;7.46;100.00;99152.88;6185021;23;20000;-82
2023/06/10 16:58:53;;;;;;;;;;;;;;;7.45;100.00;99148.53;6158651;23;19912;-82
2023/06/10 17:01:18;;;;;;;;;;;;;;;7.47;100.00;99153.75;6159010;23;20008;-81
2023/06/10 17:03:43;;;;;;;;;;;;;;;7.43;100.00;99146.88;6184958;23;19991;-82
2023/06/10 17:06:09;;;;;;;;;;;;;;;7.42;100.00;99151.28;6183415;23;19916;-81
2023/06/10 17:08:34;;;;;;;;;;;;;;;7.45;100.00;99152.91;6185296;23;19992;-82
2023/06/10 17:10:59;;;;;;;;;;;;;;;7.49;100.00;99148.41;6184995;23;20386;-82
2023/06/10 17:13:24;;;;;;;;;;;;;;;7.45;100.00;99155.56;6184994;23;20284;-83
2023/06/10 17:15:51;;;;;;;;;;;;;;;7.45;100.00;99159.06;6158483;23;19916;-82
2023/06/10 17:18:16;;;;;;;;;;;;;;;7.43;100.00;99173.22;6184885;23;19916;-81
2023/06/10 17:20:41;;;;;;;;;;;;;;;7.41;100.00;99165.38;6184776;23;20370;-82
2023/06/10 17:23:07;;;;;;;;;;;;;;;7.43;100.00;99165.31;6183242;23;19919;-82
2023/06/10 17:25:34;;;;;;;;;;;;;;;7.38;100.00;99167.28;6158276;23;19967;-82
2023/06/10 17:27:59;;;;;;;;;;;;;;;7.37;100.00;99166.44;6185193;23;20340;-82
2023/06/10 17:30:24;;;;;;;;;;;;;;;7.36;100.00;99167.34;6184964;23;20244;-82
2023/06/10 17:32:50;;;;;;;;;;;;;;;7.40;100.00;99166.31;6184767;23;20265;-82
2023/06/10 17:35:16;;;;;;;;;;;;;;;7.38;100.00;99170.75;6184871;23;19916;-82
2023/06/10 17:37:41;;;;;;;;;;;;;;;7.39;100.00;99171.66;6183162;23;20253;-82
2023/06/10 17:40:06;;;;;;;;;;;;;;;7.39;100.00;99177.75;6184449;23;19932;-82
2023/06/10 17:42:32;;;;;;;;;;;;;;;7.42;100.00;99182.06;6184560;23;19916;-82
2023/06/10 17:44:57;;;;;;;;;;;;;;;7.43;100.00;99178.50;6184671;23;20299;-82
2023/06/10 17:47:22;;;;;;;;;;;;;;;7.46;100.00;99178.38;6184563;23;19970;-82
2023/06/10 17:49:48;;;;;;;;;;;;;;;7.43;100.00;99181.13;6184587;23;19991;-82
2023/06/10 17:52:13;;;;;;;;;;;;;;;7.42;100.00;99188.19;6183057;23;19908;-82
2023/06/10 17:54:38;;;;;;;;;;;;;;;7.38;100.00;99191.84;6184330;23;20047;-84
2023/06/10 17:57:04;;;;;;;;;;;;;;;7.40;100.00;99189.16;6184913;23;20447;-83
2023/06/10 17:59:29;;;;;;;;;;;;;;;7.38;100.00;99189.22;6184431;23;19919;-82
2023/06/10 18:01:57;;;;;;;;;;;;;;;7.37;100.00;99189.28;6184590;23;19916;-82
2023/06/10 18:04:23;;;;;;;;;;;;;;;7.39;100.00;99188.31;6184660;23;20367;-83
2023/06/10 18:06:48;;;;;;;;;;;;;;;7.39;100.00;99193.59;6183330;23;19912;-82
2023/06/10 18:09:14;;;;;;;;;;;;;;;7.39;100.00;99198.84;6158086;23;19987;-82
2023/06/10 18:11:39;;;;;;;;;;;;;;;7.34;100.00;99200.81;6184471;23;19920;-82
2023/06/10 18:14:09;;;;;;;;;;;;;;;7.37;100.00;99199.81;6184579;23;19999;-82
2023/06/10 18:16:34;;;;;;;;;;;;;;;7.38;100.00;99202.41;6184385;23;20313;-81
2023/06/10 18:18:59;;;;;;;;;;;;;;;7.40;100.00;99195.31;6185539;23;19908;-82
2023/06/10 18:21:25;;;;;;;;;;;;;;;7.39;100.00;99200.63;6182860;23;19916;-82
2023/06/10 18:23:50;;;;;;;;;;;;;;;7.40;100.00;99200.59;6184769;23;19955;-82